createdAt,value
2017-09-08T00:00:31.457Z,30.8
2017-09-08T00:01:31.793Z,30.8
2017-09-08T00:02:31.797Z,30.8
2017-09-08T00:03:31.820Z,30.8
2017-09-08T00:04:31.796Z,30.8
2017-09-08T00:05:31.866Z,30.8
2017-09-08T00:06:34.832Z,30.8
2017-09-08T00:07:34.500Z,30.8
2017-09-08T00:08:32.049Z,30.8
2017-09-08T00:09:34.625Z,30.8
2017-09-08T00:10:31.897Z,30.8
2017-09-08T00:11:31.965Z,30.8
2017-09-08T00:12:35.117Z,30.8
2017-09-08T00:13:34.904Z,30.8
2017-09-08T00:14:32.372Z,30.8
2017-09-08T00:15:35.247Z,30.8
2017-09-08T00:16:35.307Z,30.8
2017-09-08T00:17:35.382Z,30.8
2017-09-08T00:18:35.305Z,30.8
2017-09-08T00:19:32.284Z,30.8
2017-09-08T00:20:35.126Z,30.8
2017-09-08T00:21:35.199Z,30.8
2017-09-08T00:22:35.272Z,30.8
2017-09-08T00:23:32.796Z,30.8
2017-09-08T00:24:35.366Z,30.8
2017-09-08T00:25:35.379Z,30.8
2017-09-08T00:26:35.696Z,30.8
2017-09-08T00:27:32.613Z,30.8
2017-09-08T00:28:35.821Z,30.8
2017-09-08T00:29:32.962Z,30.8
2017-09-08T00:30:35.509Z,30.8
2017-09-08T00:31:35.513Z,30.8
2017-09-08T00:32:32.970Z,30.8
2017-09-08T00:33:33.079Z,30.8
2017-09-08T00:34:35.605Z,30.8
2017-09-08T00:35:32.834Z,30.8
2017-09-08T00:36:36.120Z,30.8
2017-09-08T00:37:36.592Z,30.8
2017-09-08T00:38:33.213Z,30.8
2017-09-08T00:39:35.981Z,30.8
2017-09-08T00:40:33.267Z,30.8
2017-09-08T00:41:33.494Z,30.8
2017-09-08T00:42:36.466Z,30.8
2017-09-08T00:43:33.894Z,30.8
2017-09-08T00:44:33.394Z,30.8
2017-09-08T00:45:33.503Z,30.8
2017-09-08T00:46:33.528Z,30.8
2017-09-08T00:47:36.699Z,30.8
2017-09-08T00:48:38.020Z,30.8
2017-09-08T00:49:36.754Z,30.8
2017-09-08T00:50:33.710Z,30.8
2017-09-08T00:51:36.874Z,30.8
2017-09-08T00:52:36.640Z,30.8
2017-09-08T00:53:34.128Z,30.7
2017-09-08T00:54:34.116Z,30.8
2017-09-08T00:55:36.995Z,30.8
2017-09-08T00:56:37.088Z,30.8
2017-09-08T00:57:34.062Z,30.8
2017-09-08T00:58:37.233Z,30.8
2017-09-08T00:59:36.953Z,30.7
2017-09-08T01:00:37.007Z,30.7
2017-09-08T01:01:37.304Z,30.7
2017-09-08T01:02:34.269Z,30.8
2017-09-08T01:03:34.655Z,30.8
2017-09-08T01:04:35.410Z,30.8
2017-09-08T01:05:34.444Z,30.8
2017-09-08T01:06:34.522Z,30.8
2017-09-08T01:07:35.632Z,30.8
2017-09-08T01:08:40.480Z,30.7
2017-09-08T01:09:35.225Z,30.7
2017-09-08T01:10:38.786Z,30.8
2017-09-08T01:11:38.809Z,30.7
2017-09-08T01:12:38.763Z,30.7
2017-09-08T01:13:38.679Z,30.7
2017-09-08T01:14:35.599Z,30.8
2017-09-08T01:15:35.417Z,30.8
2017-09-08T01:16:35.507Z,30.8
2017-09-08T01:17:35.441Z,30.8
2017-09-08T01:18:35.370Z,30.8
2017-09-08T01:19:38.368Z,30.8
2017-09-08T01:20:38.333Z,30.8
2017-09-08T01:21:38.098Z,30.8
2017-09-08T01:22:39.305Z,30.8
2017-09-08T01:23:35.620Z,30.8
2017-09-08T01:24:35.664Z,30.8
2017-09-08T01:25:35.820Z,30.7
2017-09-08T01:26:35.732Z,30.7
2017-09-08T01:27:38.631Z,30.7
2017-09-08T01:28:38.767Z,30.7
2017-09-08T01:29:38.720Z,30.7
2017-09-08T01:30:35.841Z,30.7
2017-09-08T01:31:39.132Z,30.7
2017-09-08T01:32:39.669Z,30.7
2017-09-08T01:33:35.798Z,30.7
2017-09-08T01:34:35.871Z,30.7
2017-09-08T01:35:39.045Z,30.7
2017-09-08T01:36:39.282Z,30.7
2017-09-08T01:37:39.785Z,30.7
2017-09-08T01:38:37.203Z,30.7
2017-09-08T01:39:36.416Z,30.7
2017-09-08T01:40:36.726Z,30.7
2017-09-08T01:41:39.005Z,30.7
2017-09-08T01:42:39.699Z,30.7
2017-09-08T01:43:36.542Z,30.7
2017-09-08T01:44:36.540Z,30.7
2017-09-08T01:45:36.316Z,30.7
2017-09-08T01:46:39.196Z,30.7
2017-09-08T01:47:40.131Z,30.7
2017-09-08T01:48:40.374Z,30.7
2017-09-08T01:49:37.760Z,30.7
2017-09-08T01:50:37.366Z,30.7
2017-09-08T01:51:39.808Z,30.7
2017-09-08T01:52:40.119Z,30.7
2017-09-08T01:53:37.252Z,30.7
2017-09-08T01:54:40.305Z,30.7
2017-09-08T01:55:38.055Z,30.7
2017-09-08T01:56:39.826Z,30.7
2017-09-08T01:57:40.779Z,30.7
2017-09-08T01:58:37.012Z,30.7
2017-09-08T01:59:37.095Z,30.7
2017-09-08T02:00:37.418Z,30.7
2017-09-08T02:01:40.284Z,30.7
2017-09-08T02:02:40.863Z,30.7
2017-09-08T02:03:40.833Z,30.7
2017-09-08T02:04:37.523Z,30.7
2017-09-08T02:05:40.823Z,30.7
2017-09-08T02:06:40.875Z,30.7
2017-09-08T02:07:39.017Z,30.7
2017-09-08T02:08:37.897Z,30.7
2017-09-08T02:09:40.918Z,30.7
2017-09-08T02:10:40.949Z,30.7
2017-09-08T02:11:41.966Z,30.6
2017-09-08T02:12:37.611Z,30.7
2017-09-08T02:13:40.783Z,30.7
2017-09-08T02:14:37.980Z,30.7
2017-09-08T02:15:40.929Z,30.7
2017-09-08T02:16:38.106Z,30.6
2017-09-08T02:17:37.842Z,30.7
2017-09-08T02:18:37.939Z,30.7
2017-09-08T02:19:41.384Z,30.7
2017-09-08T02:20:38.958Z,30.6
2017-09-08T02:21:41.106Z,30.7
2017-09-08T02:22:38.705Z,30.7
2017-09-08T02:23:38.449Z,30.7
2017-09-08T02:24:38.659Z,30.7
2017-09-08T02:25:38.732Z,30.6
2017-09-08T02:26:42.055Z,30.6
2017-09-08T02:27:41.369Z,30.6
2017-09-08T02:28:41.445Z,30.6
2017-09-08T02:29:42.055Z,30.6
2017-09-08T02:30:41.385Z,30.6
2017-09-08T02:31:39.196Z,30.6
2017-09-08T02:32:41.786Z,30.6
2017-09-08T02:33:39.324Z,30.6
2017-09-08T02:34:41.931Z,30.6
2017-09-08T02:35:42.096Z,30.6
2017-09-08T02:36:38.923Z,30.6
2017-09-08T02:37:42.582Z,30.6
2017-09-08T02:38:39.155Z,30.6
2017-09-08T02:39:42.203Z,30.6
2017-09-08T02:40:42.110Z,30.6
2017-09-08T02:41:43.127Z,30.6
2017-09-08T02:42:42.291Z,30.6
2017-09-08T02:43:39.363Z,30.6
2017-09-08T02:44:42.162Z,30.6
2017-09-08T02:45:39.973Z,30.6
2017-09-08T02:46:42.390Z,30.6
2017-09-08T02:47:39.198Z,30.6
2017-09-08T02:48:42.313Z,30.6
2017-09-08T02:49:40.438Z,30.6
2017-09-08T02:50:42.374Z,30.6
2017-09-08T02:51:42.504Z,30.6
2017-09-08T02:52:42.314Z,30.6
2017-09-08T02:53:39.821Z,30.6
2017-09-08T02:54:42.704Z,30.6
2017-09-08T02:55:42.759Z,30.6
2017-09-08T02:56:42.835Z,30.6
2017-09-08T02:57:42.520Z,30.6
2017-09-08T02:58:39.806Z,30.6
2017-09-08T02:59:40.161Z,30.6
2017-09-08T03:00:42.755Z,30.6
2017-09-08T03:01:40.255Z,30.6
2017-09-08T03:02:40.201Z,30.6
2017-09-08T03:03:40.052Z,30.6
2017-09-08T03:04:42.919Z,30.6
2017-09-08T03:05:43.306Z,30.6
2017-09-08T03:06:40.299Z,30.6
2017-09-08T03:07:40.651Z,30.6
2017-09-08T03:08:43.268Z,30.6
2017-09-08T03:09:43.344Z,30.6
2017-09-08T03:10:40.543Z,30.6
2017-09-08T03:11:40.837Z,30.6
2017-09-08T03:12:43.477Z,30.5
2017-09-08T03:13:43.827Z,30.6
2017-09-08T03:14:41.042Z,30.6
2017-09-08T03:15:43.604Z,30.5
2017-09-08T03:16:43.650Z,30.5
2017-09-08T03:17:40.860Z,30.5
2017-09-08T03:18:44.080Z,30.5
2017-09-08T03:19:44.332Z,30.6
2017-09-08T03:20:41.244Z,30.6
2017-09-08T03:21:44.234Z,30.6
2017-09-08T03:22:41.422Z,30.6
2017-09-08T03:23:44.306Z,30.6
2017-09-08T03:24:44.350Z,30.6
2017-09-08T03:25:44.713Z,30.6
2017-09-08T03:26:41.243Z,30.6
2017-09-08T03:27:44.467Z,30.5
2017-09-08T03:28:44.167Z,30.6
2017-09-08T03:29:44.464Z,30.6
2017-09-08T03:30:44.272Z,30.6
2017-09-08T03:31:44.572Z,30.5
2017-09-08T03:32:41.585Z,30.6
2017-09-08T03:33:41.570Z,30.6
2017-09-08T03:34:44.403Z,30.5
2017-09-08T03:35:45.496Z,30.5
2017-09-08T03:36:41.666Z,30.5
2017-09-08T03:37:42.201Z,30.5
2017-09-08T03:38:44.548Z,30.5
2017-09-08T03:39:42.050Z,30.5
2017-09-08T03:40:42.391Z,30.5
2017-09-08T03:41:42.144Z,30.5
2017-09-08T03:42:45.046Z,30.6
2017-09-08T03:43:45.392Z,30.5
2017-09-08T03:44:45.867Z,30.6
2017-09-08T03:45:42.182Z,30.5
2017-09-08T03:46:44.995Z,30.5
2017-09-08T03:47:45.348Z,30.6
2017-09-08T03:48:45.417Z,30.6
2017-09-08T03:49:45.448Z,30.6
2017-09-08T03:50:45.534Z,30.6
2017-09-08T03:51:45.639Z,30.5
2017-09-08T03:52:42.552Z,30.5
2017-09-08T03:53:42.903Z,30.5
2017-09-08T03:54:42.879Z,30.5
2017-09-08T03:55:46.645Z,30.5
2017-09-08T03:56:42.964Z,30.5
2017-09-08T03:57:46.065Z,30.5
2017-09-08T03:58:42.824Z,30.5
2017-09-08T03:59:43.094Z,30.5
2017-09-08T04:00:46.077Z,30.5
2017-09-08T04:01:46.351Z,30.5
2017-09-08T04:02:46.145Z,30.6
2017-09-08T04:03:43.385Z,30.5
2017-09-08T04:04:43.489Z,30.5
2017-09-08T04:05:46.372Z,30.5
2017-09-08T04:06:43.592Z,30.5
2017-09-08T04:07:43.976Z,30.5
2017-09-08T04:08:46.569Z,30.5
2017-09-08T04:09:44.166Z,30.5
2017-09-08T04:10:44.338Z,30.6
2017-09-08T04:11:43.567Z,30.6
2017-09-08T04:12:43.884Z,30.6
2017-09-08T04:13:46.803Z,30.5
2017-09-08T04:14:43.712Z,30.6
2017-09-08T04:15:43.983Z,30.6
2017-09-08T04:16:46.608Z,30.6
2017-09-08T04:17:43.875Z,30.6
2017-09-08T04:18:43.896Z,30.6
2017-09-08T04:19:47.007Z,30.5
2017-09-08T04:20:47.101Z,30.6
2017-09-08T04:21:44.254Z,30.6
2017-09-08T04:22:44.308Z,30.6
2017-09-08T04:23:46.899Z,30.6
2017-09-08T04:24:44.434Z,30.5
2017-09-08T04:25:44.736Z,30.6
2017-09-08T04:26:46.962Z,30.6
2017-09-08T04:27:47.010Z,30.6
2017-09-08T04:28:44.259Z,30.5
2017-09-08T04:29:47.455Z,30.5
2017-09-08T04:30:47.178Z,30.5
2017-09-08T04:31:44.709Z,30.5
2017-09-08T04:32:47.473Z,30.4
2017-09-08T04:33:44.422Z,30.3
2017-09-08T04:34:47.251Z,30.3
2017-09-08T04:35:47.610Z,30.1
2017-09-08T04:36:44.894Z,30
2017-09-08T04:37:44.935Z,29.9
2017-09-08T04:38:48.201Z,29.8
2017-09-08T04:39:47.893Z,29.7
2017-09-08T04:40:44.741Z,29.6
2017-09-08T04:41:47.577Z,29.5
2017-09-08T04:42:47.650Z,29.5
2017-09-08T04:43:48.444Z,29.5
2017-09-08T04:44:48.338Z,29.4
2017-09-08T04:45:45.949Z,29.4
2017-09-08T04:46:49.621Z,29.4
2017-09-08T04:47:48.782Z,29.4
2017-09-08T04:48:48.613Z,29.3
2017-09-08T04:49:49.639Z,29.2
2017-09-08T04:50:46.704Z,29.2
2017-09-08T04:51:50.029Z,29.2
2017-09-08T04:52:47.746Z,29.1
2017-09-08T04:53:50.702Z,29.1
2017-09-08T04:54:47.007Z,29.1
2017-09-08T04:55:49.731Z,29.1
2017-09-08T04:56:49.312Z,29.1
2017-09-08T04:57:47.895Z,29
2017-09-08T04:58:49.034Z,29
2017-09-08T04:59:57.763Z,29
2017-09-08T05:00:55.124Z,28.9
2017-09-08T05:01:46.251Z,28.9
2017-09-08T05:02:48.539Z,28.9
2017-09-08T05:03:48.589Z,29
2017-09-08T05:04:49.001Z,29
2017-09-08T05:05:50.726Z,29
2017-09-08T05:06:46.469Z,29
2017-09-08T05:07:46.201Z,28.9
2017-09-08T05:08:49.568Z,28.9
2017-09-08T05:09:46.591Z,28.9
2017-09-08T05:10:46.414Z,28.9
2017-09-08T05:11:48.252Z,28.9
2017-09-08T05:12:51.295Z,28.9
2017-09-08T05:13:49.250Z,28.8
2017-09-08T05:14:46.388Z,28.8
2017-09-08T05:15:47.039Z,28.8
2017-09-08T05:16:58.558Z,28.8
2017-09-08T05:17:49.720Z,28.8
2017-09-08T05:18:49.645Z,28.9
2017-09-08T05:19:46.805Z,28.9
2017-09-08T05:20:46.897Z,28.9
2017-09-08T05:21:50.144Z,28.9
2017-09-08T05:22:49.632Z,28.9
2017-09-08T05:23:46.846Z,28.9
2017-09-08T05:24:47.507Z,28.9
2017-09-08T05:25:49.725Z,28.8
2017-09-08T05:26:47.064Z,28.8
2017-09-08T05:27:47.221Z,28.8
2017-09-08T05:28:47.347Z,28.7
2017-09-08T05:29:47.467Z,28.7
2017-09-08T05:30:50.291Z,28.7
2017-09-08T05:31:47.789Z,28.8
2017-09-08T05:32:50.437Z,28.7
2017-09-08T05:33:47.643Z,28.7
2017-09-08T05:34:50.288Z,28.8
2017-09-08T05:35:47.814Z,28.8
2017-09-08T05:36:48.208Z,28.8
2017-09-08T05:37:47.904Z,28.8
2017-09-08T05:38:51.468Z,28.8
2017-09-08T05:39:50.905Z,28.8
2017-09-08T05:40:47.868Z,28.8
2017-09-08T05:41:48.162Z,28.8
2017-09-08T05:42:48.746Z,28.8
2017-09-08T05:43:51.156Z,28.8
2017-09-08T05:44:48.387Z,28.7
2017-09-08T05:45:48.434Z,28.7
2017-09-08T05:46:48.256Z,28.7
2017-09-08T05:47:48.292Z,28.7
2017-09-08T05:48:51.401Z,28.7
2017-09-08T05:49:48.646Z,28.7
2017-09-08T05:50:48.481Z,28.7
2017-09-08T05:51:51.332Z,28.7
2017-09-08T05:52:49.657Z,28.7
2017-09-08T05:53:48.758Z,28.7
2017-09-08T05:54:50.931Z,28.7
2017-09-08T05:55:52.792Z,28.8
2017-09-08T05:56:52.201Z,28.7
2017-09-08T05:57:52.333Z,28.7
2017-09-08T05:58:52.209Z,28.7
2017-09-08T05:59:49.599Z,28.7
2017-09-08T06:00:52.578Z,28.7
2017-09-08T06:01:49.888Z,28.8
2017-09-08T06:02:50.746Z,28.8
2017-09-08T06:03:54.124Z,28.8
2017-09-08T06:04:49.414Z,28.8
2017-09-08T06:05:50.196Z,28.8
2017-09-08T06:06:53.322Z,28.8
2017-09-08T06:07:53.106Z,28.8
2017-09-08T06:08:51.125Z,28.8
2017-09-08T06:09:50.812Z,28.7
2017-09-08T06:10:54.564Z,28.7
2017-09-08T06:11:50.790Z,28.7
2017-09-08T06:12:54.035Z,28.7
2017-09-08T06:13:53.179Z,28.7
2017-09-08T06:14:52.103Z,28.7
2017-09-08T06:15:53.911Z,28.6
2017-09-08T06:16:52.723Z,28.7
2017-09-08T06:17:50.640Z,28.7
2017-09-08T06:18:57.622Z,28.7
2017-09-08T06:19:53.723Z,28.7
2017-09-08T06:20:52.826Z,28.7
2017-09-08T06:21:54.663Z,28.7
2017-09-08T06:22:55.890Z,28.7
2017-09-08T06:23:54.710Z,28.7
2017-09-08T06:24:50.495Z,28.6
2017-09-08T06:25:53.137Z,28.6
2017-09-08T06:27:02.313Z,28.6
2017-09-08T06:27:51.612Z,28.6
2017-09-08T06:28:51.229Z,28.6
2017-09-08T06:29:54.871Z,28.6
2017-09-08T06:30:56.195Z,28.6
2017-09-08T06:31:51.125Z,28.5
2017-09-08T06:32:50.940Z,28.5
2017-09-08T06:33:52.420Z,28.5
2017-09-08T06:34:50.983Z,28.5
2017-09-08T06:35:52.321Z,28.5
2017-09-08T06:36:54.001Z,28.6
2017-09-08T06:37:51.215Z,28.6
2017-09-08T06:38:55.497Z,28.6
2017-09-08T06:39:51.354Z,28.6
2017-09-08T06:40:54.048Z,28.6
2017-09-08T06:41:55.314Z,28.6
2017-09-08T06:42:51.990Z,28.6
2017-09-08T06:43:52.073Z,28.6
2017-09-08T06:44:52.543Z,28.6
2017-09-08T06:45:52.054Z,28.6
2017-09-08T06:46:55.849Z,28.6
2017-09-08T06:47:54.682Z,28.6
2017-09-08T06:48:56.543Z,28.6
2017-09-08T06:49:54.838Z,28.6
2017-09-08T06:50:56.224Z,28.6
2017-09-08T06:51:55.164Z,28.6
2017-09-08T06:52:55.713Z,28.6
2017-09-08T06:53:52.584Z,28.5
2017-09-08T06:54:52.015Z,28.5
2017-09-08T06:55:56.799Z,28.5
2017-09-08T06:56:53.245Z,28.5
2017-09-08T06:57:52.644Z,28.6
2017-09-08T06:58:52.225Z,28.6
2017-09-08T06:59:55.927Z,28.6
2017-09-08T07:00:55.740Z,28.6
2017-09-08T07:01:57.032Z,28.6
2017-09-08T07:02:56.138Z,28.6
2017-09-08T07:03:56.722Z,28.6
2017-09-08T07:04:55.292Z,28.7
2017-09-08T07:05:53.512Z,28.7
2017-09-08T07:06:55.397Z,28.7
2017-09-08T07:08:02.598Z,28.7
2017-09-08T07:08:57.432Z,28.7
2017-09-08T07:09:58.802Z,28.7
2017-09-08T07:10:55.876Z,28.7
2017-09-08T07:11:57.948Z,28.7
2017-09-08T07:12:58.319Z,28.8
2017-09-08T07:13:57.369Z,28.7
2017-09-08T07:14:58.120Z,28.7
2017-09-08T07:15:53.306Z,28.7
2017-09-08T07:16:57.803Z,28.7
2017-09-08T07:17:58.234Z,28.7
2017-09-08T07:18:58.831Z,28.8
2017-09-08T07:19:57.605Z,28.8
2017-09-08T07:20:54.653Z,28.8
2017-09-08T07:21:56.616Z,28.8
2017-09-08T07:22:56.267Z,28.8
2017-09-08T07:23:56.165Z,28.8
2017-09-08T07:24:58.913Z,28.8
2017-09-08T07:25:54.312Z,28.8
2017-09-08T07:26:56.446Z,28.8
2017-09-08T07:27:56.898Z,28.8
2017-09-08T07:28:56.151Z,28.7
2017-09-08T07:29:58.371Z,28.7
2017-09-08T07:30:58.654Z,28.7
2017-09-08T07:31:55.372Z,28.8
2017-09-08T07:32:54.840Z,28.8
2017-09-08T07:33:57.424Z,28.8
2017-09-08T07:34:58.300Z,28.8
2017-09-08T07:36:01.729Z,28.8
2017-09-08T07:36:58.146Z,28.8
2017-09-08T07:37:57.737Z,28.7
2017-09-08T07:38:54.062Z,28.7
2017-09-08T07:39:54.539Z,28.7
2017-09-08T07:40:57.879Z,28.7
2017-09-08T07:41:54.737Z,28.5
2017-09-08T07:42:57.975Z,28.7
2017-09-08T07:43:55.044Z,28.8
2017-09-08T07:44:56.046Z,28.8
2017-09-08T07:46:00.078Z,28.8
2017-09-08T07:47:00.505Z,28.8
2017-09-08T07:47:58.051Z,28.8
2017-09-08T07:48:59.073Z,28.8
2017-09-08T07:49:55.142Z,28.7
2017-09-08T07:50:55.811Z,28.7
2017-09-08T07:51:55.003Z,28.7
2017-09-08T07:52:58.487Z,28.7
2017-09-08T07:53:58.747Z,28.7
2017-09-08T07:54:58.985Z,28.7
2017-09-08T07:55:59.437Z,28.7
2017-09-08T07:56:56.248Z,28.8
2017-09-08T07:58:00.603Z,28.8
2017-09-08T07:58:55.018Z,28.8
2017-09-08T07:59:58.868Z,28.8
2017-09-08T08:01:00.112Z,28.8
2017-09-08T08:01:59.714Z,28.8
2017-09-08T08:02:59.685Z,28.8
2017-09-08T08:03:55.810Z,28.7
2017-09-08T08:04:58.629Z,28.7
2017-09-08T08:06:01.902Z,28.7
2017-09-08T08:06:59.499Z,28.8
2017-09-08T08:08:01.277Z,28.8
2017-09-08T08:08:57.308Z,28.8
2017-09-08T08:09:57.462Z,28.8
2017-09-08T08:11:02.048Z,28.8
2017-09-08T08:12:04.423Z,28.8
2017-09-08T08:12:56.405Z,28.7
2017-09-08T08:13:57.451Z,28.8
2017-09-08T08:14:57.337Z,28.8
2017-09-08T08:16:01.512Z,28.7
2017-09-08T08:17:01.481Z,28.7
2017-09-08T08:18:03.922Z,28.8
2017-09-08T08:18:57.462Z,28.8
2017-09-08T08:19:58.105Z,28.8
2017-09-08T08:20:58.918Z,28.8
2017-09-08T08:21:56.308Z,28.8
2017-09-08T08:22:59.019Z,28.8
2017-09-08T08:23:58.163Z,28.8
2017-09-08T08:24:56.965Z,28.8
2017-09-08T08:26:02.228Z,28.7
2017-09-08T08:26:57.922Z,28.7
2017-09-08T08:27:59.842Z,28.7
2017-09-08T08:28:57.964Z,28.7
2017-09-08T08:29:57.253Z,28.6
2017-09-08T08:30:57.663Z,28.6
2017-09-08T08:32:01.377Z,28.6
2017-09-08T08:32:59.513Z,28.6
2017-09-08T08:34:01.008Z,28.6
2017-09-08T08:35:00.284Z,28.6
2017-09-08T08:35:58.225Z,28.5
2017-09-08T08:36:57.297Z,28.5
2017-09-08T08:38:00.129Z,28.5
2017-09-08T08:39:01.214Z,28.5
2017-09-08T08:40:03.416Z,28.5
2017-09-08T08:40:59.593Z,28.5
2017-09-08T08:41:58.116Z,28.5
2017-09-08T08:42:58.450Z,28.5
2017-09-08T08:44:01.826Z,28.5
2017-09-08T08:45:03.021Z,28.5
2017-09-08T08:45:58.168Z,28.5
2017-09-08T08:47:02.916Z,28.5
2017-09-08T08:48:02.866Z,28.5
2017-09-08T08:49:02.420Z,28.5
2017-09-08T08:50:03.596Z,28.5
2017-09-08T08:50:58.162Z,28.5
2017-09-08T08:51:58.248Z,28.5
2017-09-08T08:53:01.323Z,28.5
2017-09-08T08:54:02.099Z,28.5
2017-09-08T08:55:03.847Z,28.4
2017-09-08T08:56:00.667Z,28.4
2017-09-08T08:57:03.340Z,28.4
2017-09-08T08:58:01.446Z,28.4
2017-09-08T08:58:58.904Z,28.4
2017-09-08T08:59:58.977Z,28.4
2017-09-08T09:00:58.491Z,28.4
2017-09-08T09:02:07.389Z,28.3
2017-09-08T09:02:59.313Z,28.3
2017-09-08T09:03:59.529Z,28.3
2017-09-08T09:05:01.612Z,28.4
2017-09-08T09:06:01.767Z,28.3
2017-09-08T09:07:06.365Z,28.3
2017-09-08T09:08:02.722Z,28.3
2017-09-08T09:09:01.999Z,28.3
2017-09-08T09:12:06.239Z,28.3
2017-09-08T09:12:59.299Z,28.2
2017-09-08T09:14:01.876Z,28.2
2017-09-08T09:15:02.101Z,28.2
2017-09-08T09:16:01.019Z,28.3
2017-09-08T09:17:01.637Z,28.3
2017-09-08T09:18:00.995Z,28.3
2017-09-08T09:19:00.810Z,28.4
2017-09-08T09:20:01.567Z,28.4
2017-09-08T09:21:00.823Z,28.4
2017-09-08T09:22:04.863Z,28.4
2017-09-08T09:23:00.869Z,28.4
2017-09-08T09:24:00.440Z,28.4
2017-09-08T09:25:02.174Z,28.4
2017-09-08T09:26:09.715Z,28.4
2017-09-08T09:27:08.113Z,28.4
2017-09-08T09:28:03.929Z,28.4
2017-09-08T09:29:03.514Z,28.4
2017-09-08T09:30:00.345Z,28.4
2017-09-08T09:31:05.809Z,28.4
2017-09-08T09:32:07.085Z,28.4
2017-09-08T09:33:04.620Z,28.4
2017-09-08T09:34:01.165Z,28.4
2017-09-08T09:35:09.975Z,28.4
2017-09-08T09:36:05.102Z,28.4
2017-09-08T09:37:04.640Z,28.4
2017-09-08T09:38:03.977Z,28.4
2017-09-08T09:39:08.923Z,28.4
2017-09-08T09:39:59.785Z,28.4
2017-09-08T09:41:01.913Z,28.4
2017-09-08T09:42:04.641Z,28.4
2017-09-08T09:43:03.959Z,28.4
2017-09-08T09:44:09.102Z,28.4
2017-09-08T09:45:05.686Z,28.4
2017-09-08T09:46:03.365Z,28.5
2017-09-08T09:47:11.578Z,28.5
2017-09-08T09:48:00.189Z,28.5
2017-09-08T09:49:06.790Z,28.5
2017-09-08T09:50:08.634Z,28.5
2017-09-08T09:51:05.981Z,28.4
2017-09-08T09:52:04.255Z,28.4
2017-09-08T09:53:06.751Z,28.4
2017-09-08T09:54:04.690Z,28.4
2017-09-08T09:55:10.893Z,28.4
2017-09-08T09:56:04.786Z,28.4
2017-09-08T09:58:52.859Z,28.4
2017-09-08T09:59:57.002Z,28.4
2017-09-08T10:00:55.755Z,28.4
2017-09-08T10:01:59.485Z,28.4
2017-09-08T10:03:01.330Z,28.4
2017-09-08T10:03:59.956Z,28.4
2017-09-08T10:04:58.780Z,28.4
2017-09-08T10:05:57.740Z,28.4
2017-09-08T10:07:00.991Z,28.4
2017-09-08T10:08:02.080Z,28.4
2017-09-08T10:08:55.514Z,28.5
2017-09-08T10:09:57.685Z,28.4
2017-09-08T10:10:52.946Z,28.5
2017-09-08T10:11:58.027Z,28.4
2017-09-08T10:12:52.414Z,28.4
2017-09-08T10:13:52.861Z,28.4
2017-09-08T10:14:59.026Z,28.4
2017-09-08T10:15:54.774Z,28.4
2017-09-08T10:16:57.226Z,28.5
2017-09-08T10:17:53.569Z,28.5
2017-09-08T10:18:59.361Z,28.4
2017-09-08T10:19:56.205Z,28.4
2017-09-08T10:21:05.362Z,28.4
2017-09-08T10:21:53.555Z,28.4
2017-09-08T10:22:54.431Z,28.4
2017-09-08T10:23:58.785Z,28.4
2017-09-08T10:25:00.983Z,28.4
2017-09-08T10:26:00.937Z,28.4
2017-09-08T10:27:01.691Z,28.4
2017-09-08T10:28:06.704Z,28.4
2017-09-08T10:29:00.323Z,28.4
2017-09-08T10:30:03.639Z,28.4
2017-09-08T10:31:06.330Z,28.4
2017-09-08T10:31:54.395Z,28.4
2017-09-08T10:32:56.750Z,28.4
2017-09-08T10:33:53.223Z,28.4
2017-09-08T10:34:58.039Z,28.4
2017-09-08T10:35:54.841Z,28.4
2017-09-08T10:36:57.037Z,28.3
2017-09-08T10:37:56.750Z,28.3
2017-09-08T10:38:54.524Z,28.3
2017-09-08T10:39:54.470Z,28.3
2017-09-08T10:40:56.370Z,28.3
2017-09-08T10:41:55.373Z,28.2
2017-09-08T10:42:56.118Z,28.1
2017-09-08T10:43:57.599Z,28.1
2017-09-08T10:44:55.328Z,28.1
2017-09-08T10:45:56.989Z,28.1
2017-09-08T10:46:55.393Z,28.1
2017-09-08T10:47:54.476Z,28.1
2017-09-08T10:48:55.860Z,28.1
2017-09-08T10:49:53.962Z,28.1
2017-09-08T10:50:56.829Z,28.1
2017-09-08T10:51:57.401Z,28.1
2017-09-08T10:52:57.581Z,28.1
2017-09-08T10:53:59.484Z,28.1
2017-09-08T10:54:57.930Z,28.1
2017-09-08T10:55:57.168Z,28.1
2017-09-08T10:56:59.798Z,28
2017-09-08T10:57:55.161Z,28
2017-09-08T10:59:04.009Z,28
2017-09-08T10:59:59.949Z,28.1
2017-09-08T11:00:55.180Z,28.1
2017-09-08T11:01:57.277Z,28
2017-09-08T11:02:56.168Z,28
2017-09-08T11:03:58.366Z,28.1
2017-09-08T11:04:57.741Z,28.1
2017-09-08T11:05:58.122Z,28
2017-09-08T11:06:55.730Z,28
2017-09-08T11:07:56.842Z,28
2017-09-08T11:08:55.067Z,28
2017-09-08T11:09:57.752Z,28.1
2017-09-08T11:10:56.410Z,28
2017-09-08T11:11:56.038Z,28
2017-09-08T11:12:55.827Z,28
2017-09-08T11:13:58.913Z,28
2017-09-08T11:14:58.005Z,28
2017-09-08T11:15:58.154Z,28
2017-09-08T11:16:58.167Z,28
2017-09-08T11:17:55.639Z,28
2017-09-08T11:18:55.269Z,28
2017-09-08T11:19:56.789Z,28
2017-09-08T11:21:00.478Z,28
2017-09-08T11:21:59.341Z,28
2017-09-08T11:22:55.761Z,28
2017-09-08T11:23:59.019Z,27.9
2017-09-08T11:24:55.715Z,27.9
2017-09-08T11:25:55.937Z,27.9
2017-09-08T11:26:58.764Z,27.9
2017-09-08T11:27:58.878Z,27.9
2017-09-08T11:28:55.740Z,27.9
2017-09-08T11:30:00.143Z,27.9
2017-09-08T11:30:56.121Z,27.9
2017-09-08T11:31:58.686Z,27.9
2017-09-08T11:32:58.720Z,27.9
2017-09-08T11:34:01.184Z,27.8
2017-09-08T11:34:59.467Z,27.7
2017-09-08T11:36:00.014Z,27.7
2017-09-08T11:36:58.861Z,27.7
2017-09-08T11:37:56.138Z,27.7
2017-09-08T11:38:58.986Z,27.7
2017-09-08T11:39:59.043Z,27.6
2017-09-08T11:40:59.762Z,27.6
2017-09-08T11:41:56.530Z,27.6
2017-09-08T11:42:59.594Z,27.6
2017-09-08T11:43:59.434Z,27.6
2017-09-08T11:44:56.589Z,27.6
2017-09-08T11:45:59.529Z,27.6
2017-09-08T11:46:56.538Z,27.6
2017-09-08T11:47:59.888Z,27.6
2017-09-08T11:48:59.727Z,27.5
2017-09-08T11:49:56.526Z,27.5
2017-09-08T11:50:59.741Z,27.5
2017-09-08T11:51:56.922Z,27.5
2017-09-08T11:53:02.022Z,27.4
2017-09-08T11:53:57.954Z,27.5
2017-09-08T11:54:56.727Z,27.5
2017-09-08T11:55:59.630Z,27.4
2017-09-08T11:56:56.935Z,27.4
2017-09-08T11:57:57.181Z,27.4
2017-09-08T11:59:00.401Z,27.4
2017-09-08T11:59:57.363Z,27.4
2017-09-08T12:00:57.699Z,27.3
2017-09-08T12:01:57.365Z,27.3
2017-09-08T12:03:00.268Z,27.3
2017-09-08T12:04:00.557Z,27.3
2017-09-08T12:04:57.160Z,27.2
2017-09-08T12:05:57.473Z,27.3
2017-09-08T12:06:57.255Z,27.3
2017-09-08T12:08:01.665Z,27.2
2017-09-08T12:09:00.123Z,27.3
2017-09-08T12:10:00.224Z,27.3
2017-09-08T12:10:58.329Z,27.3
2017-09-08T12:12:00.923Z,27.3
2017-09-08T12:12:57.688Z,27.3
2017-09-08T12:14:00.337Z,27.3
2017-09-08T12:14:58.553Z,27.2
2017-09-08T12:15:57.926Z,27.2
2017-09-08T12:17:00.022Z,27.3
2017-09-08T12:17:58.316Z,27.3
2017-09-08T12:18:58.754Z,27.2
2017-09-08T12:19:59.387Z,27.3
2017-09-08T12:20:58.190Z,27.3
2017-09-08T12:21:58.184Z,27.3
2017-09-08T12:23:00.813Z,27.3
2017-09-08T12:24:01.172Z,27.3
2017-09-08T12:24:58.322Z,27.2
2017-09-08T12:25:58.401Z,27.2
2017-09-08T12:27:02.035Z,27.2
2017-09-08T12:28:01.403Z,27.2
2017-09-08T12:29:01.403Z,27.2
2017-09-08T12:30:01.508Z,27.2
2017-09-08T12:31:00.045Z,27.2
2017-09-08T12:31:58.738Z,27.2
2017-09-08T12:33:04.174Z,27.2
2017-09-08T12:33:58.611Z,27.2
2017-09-08T12:35:01.487Z,27.2
2017-09-08T12:36:02.323Z,27.3
2017-09-08T12:36:59.657Z,27.2
2017-09-08T12:37:59.338Z,27.3
2017-09-08T12:39:01.855Z,27.3
2017-09-08T12:39:59.513Z,27.3
2017-09-08T12:41:01.632Z,27.3
2017-09-08T12:42:02.911Z,27.3
2017-09-08T12:42:58.918Z,27.2
2017-09-08T12:44:02.161Z,27.2
2017-09-08T12:45:00.044Z,27.3
2017-09-08T12:45:59.323Z,27.3
2017-09-08T12:47:00.059Z,27.3
2017-09-08T12:48:00.850Z,27.3
2017-09-08T12:49:03.453Z,27.3
2017-09-08T12:49:59.349Z,27.3
2017-09-08T12:51:02.189Z,27.3
2017-09-08T12:51:59.377Z,27.3
2017-09-08T12:53:02.699Z,27.3
2017-09-08T12:54:02.595Z,27.2
2017-09-08T12:55:03.009Z,27.3
2017-09-08T12:56:00.118Z,27.3
2017-09-08T12:57:01.074Z,27.3
2017-09-08T12:58:02.923Z,27.3
2017-09-08T12:59:02.778Z,27.3
2017-09-08T13:00:02.840Z,27.3
2017-09-08T13:01:02.526Z,27.4
2017-09-08T13:02:02.928Z,27.4
2017-09-08T13:03:03.004Z,27.4
2017-09-08T13:04:00.218Z,27.4
2017-09-08T13:05:03.102Z,27.3
2017-09-08T13:06:00.293Z,27.3
2017-09-08T13:07:03.188Z,27.3
2017-09-08T13:08:00.399Z,27.2
2017-09-08T13:09:00.143Z,27.2
2017-09-08T13:10:00.440Z,27.2
2017-09-08T13:11:02.931Z,27.2
2017-09-08T13:12:00.728Z,27.2
2017-09-08T13:13:03.474Z,27.2
2017-09-08T13:14:03.164Z,27.2
2017-09-08T13:15:03.676Z,27.3
2017-09-08T13:16:00.562Z,27.3
2017-09-08T13:17:03.916Z,27.3
2017-09-08T13:18:06.852Z,27.3
2017-09-08T13:19:01.014Z,27.2
2017-09-08T13:20:01.496Z,27.2
2017-09-08T13:21:01.782Z,27.2
2017-09-08T13:22:01.047Z,27.2
2017-09-08T13:23:00.841Z,27.2
2017-09-08T13:24:06.304Z,27.2
2017-09-08T13:25:00.988Z,27.2